sensor_id;sensor_type;location;lat;lon;timestamp;P1;durP1;ratioP1;P2;durP2;ratioP2
5414;SDS011;2730;51.512;7.504;2022-08-19T05:01:50;27.30;;;18.03;;
5414;SDS011;2730;51.512;7.504;2022-08-19T05:04:18;23.67;;;17.17;;
5414;SDS011;2730;51.512;7.504;2022-08-19T05:06:46;24.80;;;15.47;;
5414;SDS011;2730;51.512;7.504;2022-08-19T05:09:14;30.90;;;16.70;;
5414;SDS011;2730;51.512;7.504;2022-08-19T05:11:42;30.50;;;16.40;;
5414;SDS011;2730;51.512;7.504;2022-08-19T05:14:10;27.47;;;16.60;;
5414;SDS011;2730;51.512;7.504;2022-08-19T05:16:37;25.57;;;16.50;;
5414;SDS011;2730;51.512;7.504;2022-08-19T05:19:06;23.67;;;17.40;;
5414;SDS011;2730;51.512;7.504;2022-08-19T05:21:51;23.43;;;17.37;;
5414;SDS011;2730;51.512;7.504;2022-08-19T05:24:36;30.57;;;16.67;;
5414;SDS011;2730;51.512;7.504;2022-08-19T05:27:03;26.63;;;17.40;;
5414;SDS011;2730;51.512;7.504;2022-08-19T05:29:32;32.53;;;19.13;;
5414;SDS011;2730;51.512;7.504;2022-08-19T05:32:00;32.50;;;17.00;;
5414;SDS011;2730;51.512;7.504;2022-08-19T05:34:31;27.27;;;19.23;;
5414;SDS011;2730;51.512;7.504;2022-08-19T05:36:58;29.57;;;17.83;;
5414;SDS011;2730;51.512;7.504;2022-08-19T05:39:28;22.83;;;16.00;;
5414;SDS011;2730;51.512;7.504;2022-08-19T05:41:57;27.03;;;17.60;;
5414;SDS011;2730;51.512;7.504;2022-08-19T05:44:25;25.33;;;17.90;;
5414;SDS011;2730;51.512;7.504;2022-08-19T05:46:56;22.20;;;16.43;;
5414;SDS011;2730;51.512;7.504;2022-08-19T05:49:24;29.37;;;18.97;;
5414;SDS011;2730;51.512;7.504;2022-08-19T05:51:54;46.33;;;19.57;;
5414;SDS011;2730;51.512;7.504;2022-08-19T05:54:21;27.30;;;19.23;;
5414;SDS011;2730;51.512;7.504;2022-08-19T05:56:49;29.40;;;19.80;;
5414;SDS011;2730;51.512;7.504;2022-08-19T05:59:17;32.93;;;18.80;;
5414;SDS011;2730;51.512;7.504;2022-08-19T06:01:46;33.30;;;19.63;;
5414;SDS011;2730;51.512;7.504;2022-08-19T06:04:16;27.97;;;19.10;;
5414;SDS011;2730;51.512;7.504;2022-08-19T06:06:44;30.27;;;19.53;;
5414;SDS011;2730;51.512;7.504;2022-08-19T06:09:13;35.73;;;18.83;;
5414;SDS011;2730;51.512;7.504;2022-08-19T06:11:42;29.93;;;19.03;;
5414;SDS011;2730;51.512;7.504;2022-08-19T06:14:11;28.37;;;19.30;;
5414;SDS011;2730;51.512;7.504;2022-08-19T06:16:43;31.60;;;20.23;;
5414;SDS011;2730;51.512;7.504;2022-08-19T06:19:11;31.00;;;19.50;;
5414;SDS011;2730;51.512;7.504;2022-08-19T06:21:40;32.10;;;20.63;;
5414;SDS011;2730;51.512;7.504;2022-08-19T06:24:10;34.37;;;20.77;;
5414;SDS011;2730;51.512;7.504;2022-08-19T06:26:41;32.97;;;21.53;;
5414;SDS011;2730;51.512;7.504;2022-08-19T06:29:09;34.07;;;22.30;;
5414;SDS011;2730;51.512;7.504;2022-08-19T06:31:40;25.93;;;18.67;;
5414;SDS011;2730;51.512;7.504;2022-08-19T06:34:08;33.63;;;19.37;;
5414;SDS011;2730;51.512;7.504;2022-08-19T06:36:37;31.70;;;20.67;;
5414;SDS011;2730;51.512;7.504;2022-08-19T06:39:06;34.20;;;19.80;;
5414;SDS011;2730;51.512;7.504;2022-08-19T06:41:36;27.83;;;18.80;;
5414;SDS011;2730;51.512;7.504;2022-08-19T06:44:06;27.47;;;19.03;;
5414;SDS011;2730;51.512;7.504;2022-08-19T06:46:34;34.23;;;18.97;;
5414;SDS011;2730;51.512;7.504;2022-08-19T06:49:01;29.20;;;18.30;;
5414;SDS011;2730;51.512;7.504;2022-08-19T06:51:29;31.87;;;18.57;;
5414;SDS011;2730;51.512;7.504;2022-08-19T06:53:57;25.83;;;18.17;;
5414;SDS011;2730;51.512;7.504;2022-08-19T06:56:25;23.97;;;17.70;;
5414;SDS011;2730;51.512;7.504;2022-08-19T06:58:58;35.13;;;17.87;;
5414;SDS011;2730;51.512;7.504;2022-08-19T07:01:27;22.17;;;16.70;;
5414;SDS011;2730;51.512;7.504;2022-08-19T07:03:54;23.67;;;18.20;;
5414;SDS011;2730;51.512;7.504;2022-08-19T07:06:22;28.43;;;17.13;;
5414;SDS011;2730;51.512;7.504;2022-08-19T07:08:49;23.90;;;16.73;;
5414;SDS011;2730;51.512;7.504;2022-08-19T07:11:16;22.80;;;15.60;;
5414;SDS011;2730;51.512;7.504;2022-08-19T07:13:44;22.30;;;15.80;;
5414;SDS011;2730;51.512;7.504;2022-08-19T07:16:13;27.90;;;17.63;;
5414;SDS011;2730;51.512;7.504;2022-08-19T07:18:43;20.80;;;15.63;;
5414;SDS011;2730;51.512;7.504;2022-08-19T07:21:12;29.87;;;16.70;;
5414;SDS011;2730;51.512;7.504;2022-08-19T07:23:40;24.03;;;15.37;;
5414;SDS011;2730;51.512;7.504;2022-08-19T07:26:09;27.90;;;16.30;;
5414;SDS011;2730;51.512;7.504;2022-08-19T07:28:38;26.40;;;15.70;;
5414;SDS011;2730;51.512;7.504;2022-08-19T07:31:05;28.08;;;15.82;;
5414;SDS011;2730;51.512;7.504;2022-08-19T07:33:32;22.67;;;15.70;;
5414;SDS011;2730;51.512;7.504;2022-08-19T07:36:03;21.90;;;15.50;;
5414;SDS011;2730;51.512;7.504;2022-08-19T07:38:30;23.93;;;16.40;;
5414;SDS011;2730;51.512;7.504;2022-08-19T07:40:58;21.43;;;16.00;;
5414;SDS011;2730;51.512;7.504;2022-08-19T07:43:26;22.40;;;16.27;;
5414;SDS011;2730;51.512;7.504;2022-08-19T07:45:54;22.93;;;16.40;;
5414;SDS011;2730;51.512;7.504;2022-08-19T07:48:22;18.47;;;16.10;;
5414;SDS011;2730;51.512;7.504;2022-08-19T07:50:50;22.10;;;16.77;;
5414;SDS011;2730;51.512;7.504;2022-08-19T07:53:19;27.43;;;16.70;;
5414;SDS011;2730;51.512;7.504;2022-08-19T07:55:46;20.57;;;16.40;;
5414;SDS011;2730;51.512;7.504;2022-08-19T07:58:14;20.80;;;15.60;;
5414;SDS011;2730;51.512;7.504;2022-08-19T08:00:42;24.70;;;16.00;;
5414;SDS011;2730;51.512;7.504;2022-08-19T08:03:11;21.03;;;15.20;;
5414;SDS011;2730;51.512;7.504;2022-08-19T08:05:39;21.73;;;15.37;;
5414;SDS011;2730;51.512;7.504;2022-08-19T08:08:25;19.33;;;14.80;;
5414;SDS011;2730;51.512;7.504;2022-08-19T08:11:10;26.90;;;15.90;;
5414;SDS011;2730;51.512;7.504;2022-08-19T08:13:37;25.40;;;16.63;;
5414;SDS011;2730;51.512;7.504;2022-08-19T08:16:06;18.70;;;13.47;;
5414;SDS011;2730;51.512;7.504;2022-08-19T08:18:33;21.13;;;14.27;;
5414;SDS011;2730;51.512;7.504;2022-08-19T08:21:06;17.93;;;12.83;;
5414;SDS011;2730;51.512;7.504;2022-08-19T08:23:35;25.23;;;15.33;;
5414;SDS011;2730;51.512;7.504;2022-08-19T08:26:02;14.87;;;12.83;;
5414;SDS011;2730;51.512;7.504;2022-08-19T08:28:29;18.00;;;13.27;;
5414;SDS011;2730;51.512;7.504;2022-08-19T08:30:57;20.73;;;13.40;;
5414;SDS011;2730;51.512;7.504;2022-08-19T08:33:25;17.23;;;13.20;;
5414;SDS011;2730;51.512;7.504;2022-08-19T08:35:53;21.23;;;13.30;;
5414;SDS011;2730;51.512;7.504;2022-08-19T08:38:20;20.37;;;13.67;;
5414;SDS011;2730;51.512;7.504;2022-08-19T08:40:49;22.80;;;13.20;;
5414;SDS011;2730;51.512;7.504;2022-08-19T08:43:22;16.47;;;12.70;;
5414;SDS011;2730;51.512;7.504;2022-08-19T08:45:53;14.60;;;12.87;;
5414;SDS011;2730;51.512;7.504;2022-08-19T08:48:27;19.23;;;12.27;;
5414;SDS011;2730;51.512;7.504;2022-08-19T08:51:02;13.07;;;11.73;;
5414;SDS011;2730;51.512;7.504;2022-08-19T08:53:31;14.63;;;12.30;;
5414;SDS011;2730;51.512;7.504;2022-08-19T08:56:02;13.27;;;12.00;;
5414;SDS011;2730;51.512;7.504;2022-08-19T08:58:37;19.90;;;10.60;;
5414;SDS011;2730;51.512;7.504;2022-08-19T09:01:11;12.10;;;10.73;;
5414;SDS011;2730;51.512;7.504;2022-08-19T09:03:39;12.40;;;11.10;;
5414;SDS011;2730;51.512;7.504;2022-08-19T09:06:10;19.80;;;12.67;;
5414;SDS011;2730;51.512;7.504;2022-08-19T09:08:45;14.37;;;12.10;;
5414;SDS011;2730;51.512;7.504;2022-08-19T09:11:19;17.13;;;12.37;;
5414;SDS011;2730;51.512;7.504;2022-08-19T09:14:02;12.10;;;10.83;;
5414;SDS011;2730;51.512;7.504;2022-08-19T09:16:35;11.20;;;10.10;;
5414;SDS011;2730;51.512;7.504;2022-08-19T09:19:06;13.00;;;11.70;;
5414;SDS011;2730;51.512;7.504;2022-08-19T09:21:36;15.17;;;12.67;;
5414;SDS011;2730;51.512;7.504;2022-08-19T09:24:03;17.40;;;11.20;;
5414;SDS011;2730;51.512;7.504;2022-08-19T09:26:32;15.10;;;12.10;;
5414;SDS011;2730;51.512;7.504;2022-08-19T09:28:59;12.80;;;11.50;;
5414;SDS011;2730;51.512;7.504;2022-08-19T09:31:30;17.27;;;12.63;;
5414;SDS011;2730;51.512;7.504;2022-08-19T09:33:58;19.83;;;15.00;;
5414;SDS011;2730;51.512;7.504;2022-08-19T09:36:27;16.83;;;13.83;;
5414;SDS011;2730;51.512;7.504;2022-08-19T09:38:57;13.60;;;11.60;;
5414;SDS011;2730;51.512;7.504;2022-08-19T09:41:26;17.33;;;15.33;;
5414;SDS011;2730;51.512;7.504;2022-08-19T09:43:55;18.40;;;15.30;;
5414;SDS011;2730;51.512;7.504;2022-08-19T09:46:24;17.40;;;14.03;;
5414;SDS011;2730;51.512;7.504;2022-08-19T09:48:52;14.53;;;13.23;;
5414;SDS011;2730;51.512;7.504;2022-08-19T09:51:22;17.50;;;15.63;;
5414;SDS011;2730;51.512;7.504;2022-08-19T09:53:51;15.17;;;13.50;;
5414;SDS011;2730;51.512;7.504;2022-08-19T09:56:20;18.33;;;12.90;;
5414;SDS011;2730;51.512;7.504;2022-08-19T09:58:47;17.43;;;15.30;;
5414;SDS011;2730;51.512;7.504;2022-08-19T10:01:18;20.60;;;15.20;;
5414;SDS011;2730;51.512;7.504;2022-08-19T10:03:47;16.57;;;14.37;;
5414;SDS011;2730;51.512;7.504;2022-08-19T10:06:15;20.53;;;14.27;;
5414;SDS011;2730;51.512;7.504;2022-08-19T10:08:44;12.53;;;11.23;;
5414;SDS011;2730;51.512;7.504;2022-08-19T10:11:12;12.73;;;10.40;;
5414;SDS011;2730;51.512;7.504;2022-08-19T10:13:41;12.90;;;10.43;;
5414;SDS011;2730;51.512;7.504;2022-08-19T10:16:10;12.60;;;11.30;;
5414;SDS011;2730;51.512;7.504;2022-08-19T10:18:42;16.37;;;14.63;;
5414;SDS011;2730;51.512;7.504;2022-08-19T10:21:10;19.67;;;15.23;;
5414;SDS011;2730;51.512;7.504;2022-08-19T10:23:39;16.67;;;13.67;;
5414;SDS011;2730;51.512;7.504;2022-08-19T10:26:10;22.33;;;12.40;;
5414;SDS011;2730;51.512;7.504;2022-08-19T10:28:38;14.03;;;12.20;;
5414;SDS011;2730;51.512;7.504;2022-08-19T10:31:05;12.37;;;11.03;;
5414;SDS011;2730;51.512;7.504;2022-08-19T10:33:33;15.00;;;11.23;;
5414;SDS011;2730;51.512;7.504;2022-08-19T10:36:03;13.27;;;10.80;;
5414;SDS011;2730;51.512;7.504;2022-08-19T10:38:32;12.80;;;11.50;;
5414;SDS011;2730;51.512;7.504;2022-08-19T10:41:05;14.73;;;12.30;;
5414;SDS011;2730;51.512;7.504;2022-08-19T10:43:33;14.53;;;12.93;;
5414;SDS011;2730;51.512;7.504;2022-08-19T10:46:03;17.50;;;11.50;;
5414;SDS011;2730;51.512;7.504;2022-08-19T10:48:30;10.23;;;9.23;;
5414;SDS011;2730;51.512;7.504;2022-08-19T10:50:58;9.63;;;8.70;;
5414;SDS011;2730;51.512;7.504;2022-08-19T10:53:43;9.47;;;8.57;;
5414;SDS011;2730;51.512;7.504;2022-08-19T10:56:10;13.30;;;11.17;;
5414;SDS011;2730;51.512;7.504;2022-08-19T10:58:54;12.73;;;10.73;;
5414;SDS011;2730;51.512;7.504;2022-08-19T11:01:22;23.33;;;12.87;;
5414;SDS011;2730;51.512;7.504;2022-08-19T11:03:49;17.50;;;13.70;;
5414;SDS011;2730;51.512;7.504;2022-08-19T11:06:17;13.90;;;11.23;;
5414;SDS011;2730;51.512;7.504;2022-08-19T11:08:46;17.63;;;11.77;;
5414;SDS011;2730;51.512;7.504;2022-08-19T11:11:13;13.50;;;12.10;;
5414;SDS011;2730;51.512;7.504;2022-08-19T11:13:40;14.47;;;12.50;;
5414;SDS011;2730;51.512;7.504;2022-08-19T11:16:09;15.23;;;11.80;;
5414;SDS011;2730;51.512;7.504;2022-08-19T11:18:39;14.20;;;12.37;;
5414;SDS011;2730;51.512;7.504;2022-08-19T11:21:09;12.40;;;11.27;;
5414;SDS011;2730;51.512;7.504;2022-08-19T11:23:38;15.83;;;12.27;;
5414;SDS011;2730;51.512;7.504;2022-08-19T11:26:07;15.03;;;12.67;;
5414;SDS011;2730;51.512;7.504;2022-08-19T11:28:34;13.60;;;12.30;;
5414;SDS011;2730;51.512;7.504;2022-08-19T11:31:01;17.53;;;10.33;;
5414;SDS011;2730;51.512;7.504;2022-08-19T11:33:29;11.60;;;8.87;;
5414;SDS011;2730;51.512;7.504;2022-08-19T11:35:57;10.93;;;10.03;;
5414;SDS011;2730;51.512;7.504;2022-08-19T11:38:24;13.60;;;10.10;;
5414;SDS011;2730;51.512;7.504;2022-08-19T11:40:55;9.80;;;8.90;;
5414;SDS011;2730;51.512;7.504;2022-08-19T11:43:24;10.17;;;9.20;;
5414;SDS011;2730;51.512;7.504;2022-08-19T11:45:52;12.07;;;11.00;;
5414;SDS011;2730;51.512;7.504;2022-08-19T11:48:19;11.87;;;10.67;;
5414;SDS011;2730;51.512;7.504;2022-08-19T11:50:48;11.37;;;10.13;;
5414;SDS011;2730;51.512;7.504;2022-08-19T11:53:16;17.43;;;11.70;;
5414;SDS011;2730;51.512;7.504;2022-08-19T11:55:43;19.90;;;9.90;;
5414;SDS011;2730;51.512;7.504;2022-08-19T11:58:10;11.87;;;9.37;;
5414;SDS011;2730;51.512;7.504;2022-08-19T12:00:39;9.83;;;8.90;;
5414;SDS011;2730;51.512;7.504;2022-08-19T12:03:07;10.30;;;8.43;;
5414;SDS011;2730;51.512;7.504;2022-08-19T12:05:36;8.30;;;7.63;;
5414;SDS011;2730;51.512;7.504;2022-08-19T12:08:03;8.10;;;7.40;;
5414;SDS011;2730;51.512;7.504;2022-08-19T12:10:30;15.30;;;11.03;;
5414;SDS011;2730;51.512;7.504;2022-08-19T12:12:58;14.73;;;12.87;;
5414;SDS011;2730;51.512;7.504;2022-08-19T12:15:25;17.90;;;12.40;;
5414;SDS011;2730;51.512;7.504;2022-08-19T12:17:56;19.00;;;13.23;;
5414;SDS011;2730;51.512;7.504;2022-08-19T12:20:23;12.30;;;10.83;;
5414;SDS011;2730;51.512;7.504;2022-08-19T12:22:51;12.27;;;11.00;;
5414;SDS011;2730;51.512;7.504;2022-08-19T12:25:18;12.03;;;9.90;;
5414;SDS011;2730;51.512;7.504;2022-08-19T12:27:45;11.37;;;10.37;;
5414;SDS011;2730;51.512;7.504;2022-08-19T12:30:13;12.70;;;9.87;;
5414;SDS011;2730;51.512;7.504;2022-08-19T12:32:40;15.87;;;13.77;;
5414;SDS011;2730;51.512;7.504;2022-08-19T12:35:08;22.60;;;17.20;;
5414;SDS011;2730;51.512;7.504;2022-08-19T12:37:36;18.57;;;14.87;;
5414;SDS011;2730;51.512;7.504;2022-08-19T12:40:04;22.33;;;16.73;;
5414;SDS011;2730;51.512;7.504;2022-08-19T12:42:31;22.83;;;17.93;;
5414;SDS011;2730;51.512;7.504;2022-08-19T12:44:59;16.90;;;14.27;;
5414;SDS011;2730;51.512;7.504;2022-08-19T12:47:26;15.43;;;13.20;;
5414;SDS011;2730;51.512;7.504;2022-08-19T12:49:55;14.90;;;13.23;;
5414;SDS011;2730;51.512;7.504;2022-08-19T12:52:25;16.50;;;11.87;;
5414;SDS011;2730;51.512;7.504;2022-08-19T12:54:53;13.30;;;11.90;;
5414;SDS011;2730;51.512;7.504;2022-08-19T12:57:21;14.80;;;12.50;;
5414;SDS011;2730;51.512;7.504;2022-08-19T12:59:51;13.90;;;12.50;;
5414;SDS011;2730;51.512;7.504;2022-08-19T13:02:19;14.07;;;12.33;;
5414;SDS011;2730;51.512;7.504;2022-08-19T13:04:46;16.17;;;14.57;;
5414;SDS011;2730;51.512;7.504;2022-08-19T13:07:13;14.10;;;12.67;;
5414;SDS011;2730;51.512;7.504;2022-08-19T13:09:41;15.20;;;13.53;;
5414;SDS011;2730;51.512;7.504;2022-08-19T13:12:08;15.00;;;13.10;;
5414;SDS011;2730;51.512;7.504;2022-08-19T13:14:37;16.00;;;12.63;;
5414;SDS011;2730;51.512;7.504;2022-08-19T13:17:05;15.27;;;12.83;;
5414;SDS011;2730;51.512;7.504;2022-08-19T13:19:33;15.30;;;13.70;;
5414;SDS011;2730;51.512;7.504;2022-08-19T13:22:02;14.57;;;13.10;;
5414;SDS011;2730;51.512;7.504;2022-08-19T13:24:29;16.00;;;11.83;;
5414;SDS011;2730;51.512;7.504;2022-08-19T13:27:00;11.90;;;10.90;;
5414;SDS011;2730;51.512;7.504;2022-08-19T13:29:27;14.80;;;10.47;;
5414;SDS011;2730;51.512;7.504;2022-08-19T13:32:12;9.77;;;8.50;;
5414;SDS011;2730;51.512;7.504;2022-08-19T13:34:56;10.47;;;9.47;;
5414;SDS011;2730;51.512;7.504;2022-08-19T13:37:23;10.60;;;9.70;;
5414;SDS011;2730;51.512;7.504;2022-08-19T13:40:04;10.80;;;9.73;;
5414;SDS011;2730;51.512;7.504;2022-08-19T13:42:34;14.03;;;10.77;;
5414;SDS011;2730;51.512;7.504;2022-08-19T13:45:01;9.70;;;8.73;;
5414;SDS011;2730;51.512;7.504;2022-08-19T13:47:29;11.23;;;10.23;;
5414;SDS011;2730;51.512;7.504;2022-08-19T13:49:56;11.77;;;10.00;;
5414;SDS011;2730;51.512;7.504;2022-08-19T13:52:24;9.97;;;8.97;;
5414;SDS011;2730;51.512;7.504;2022-08-19T13:54:51;12.00;;;9.20;;
5414;SDS011;2730;51.512;7.504;2022-08-19T13:57:18;10.83;;;9.23;;
5414;SDS011;2730;51.512;7.504;2022-08-19T13:59:47;9.80;;;8.87;;
5414;SDS011;2730;51.512;7.504;2022-08-19T14:02:14;11.10;;;8.60;;
5414;SDS011;2730;51.512;7.504;2022-08-19T14:04:41;9.07;;;8.27;;
5414;SDS011;2730;51.512;7.504;2022-08-19T14:07:08;9.83;;;8.13;;
5414;SDS011;2730;51.512;7.504;2022-08-19T14:09:35;9.00;;;8.10;;
5414;SDS011;2730;51.512;7.504;2022-08-19T14:12:02;9.87;;;8.50;;
5414;SDS011;2730;51.512;7.504;2022-08-19T14:14:30;8.53;;;7.83;;
5414;SDS011;2730;51.512;7.504;2022-08-19T14:16:58;11.97;;;8.53;;
5414;SDS011;2730;51.512;7.504;2022-08-19T14:19:26;8.47;;;7.67;;
5414;SDS011;2730;51.512;7.504;2022-08-19T14:21:53;9.30;;;7.57;;
5414;SDS011;2730;51.512;7.504;2022-08-19T14:24:22;10.37;;;9.40;;
5414;SDS011;2730;51.512;7.504;2022-08-19T14:26:49;8.93;;;8.13;;
5414;SDS011;2730;51.512;7.504;2022-08-19T14:29:16;11.87;;;9.60;;
5414;SDS011;2730;51.512;7.504;2022-08-19T14:31:43;10.20;;;9.20;;
5414;SDS011;2730;51.512;7.504;2022-08-19T14:34:11;9.43;;;8.53;;
5414;SDS011;2730;51.512;7.504;2022-08-19T14:36:38;9.00;;;8.17;;
5414;SDS011;2730;51.512;7.504;2022-08-19T14:39:07;9.30;;;8.50;;
5414;SDS011;2730;51.512;7.504;2022-08-19T14:41:34;9.37;;;8.43;;
5414;SDS011;2730;51.512;7.504;2022-08-19T14:44:02;10.60;;;8.57;;
5414;SDS011;2730;51.512;7.504;2022-08-19T14:46:29;9.33;;;8.60;;
5414;SDS011;2730;51.512;7.504;2022-08-19T14:48:56;9.20;;;8.40;;
5414;SDS011;2730;51.512;7.504;2022-08-19T14:51:24;9.57;;;8.63;;
5414;SDS011;2730;51.512;7.504;2022-08-19T14:53:52;10.93;;;9.23;;
5414;SDS011;2730;51.512;7.504;2022-08-19T14:56:21;9.90;;;8.47;;
5414;SDS011;2730;51.512;7.504;2022-08-19T14:58:49;8.87;;;8.07;;
5414;SDS011;2730;51.512;7.504;2022-08-19T15:01:17;10.13;;;7.80;;
5414;SDS011;2730;51.512;7.504;2022-08-19T15:03:46;7.87;;;7.17;;
5414;SDS011;2730;51.512;7.504;2022-08-19T15:06:13;8.53;;;7.53;;
5414;SDS011;2730;51.512;7.504;2022-08-19T15:08:41;8.10;;;7.40;;
5414;SDS011;2730;51.512;7.504;2022-08-19T15:11:10;13.37;;;7.90;;
5414;SDS011;2730;51.512;7.504;2022-08-19T15:13:39;8.20;;;6.50;;
5414;SDS011;2730;51.512;7.504;2022-08-19T15:16:07;7.43;;;6.73;;
5414;SDS011;2730;51.512;7.504;2022-08-19T15:18:34;10.67;;;6.90;;
5414;SDS011;2730;51.512;7.504;2022-08-19T15:21:01;7.10;;;6.40;;
5414;SDS011;2730;51.512;7.504;2022-08-19T15:23:29;7.13;;;6.43;;
5414;SDS011;2730;51.512;7.504;2022-08-19T15:25:58;7.97;;;6.30;;
5414;SDS011;2730;51.512;7.504;2022-08-19T15:28:25;8.17;;;7.50;;
5414;SDS011;2730;51.512;7.504;2022-08-19T15:30:56;7.77;;;7.00;;
5414;SDS011;2730;51.512;7.504;2022-08-19T15:33:23;6.93;;;6.27;;
5414;SDS011;2730;51.512;7.504;2022-08-19T15:35:50;9.07;;;6.80;;
5414;SDS011;2730;51.512;7.504;2022-08-19T15:38:18;6.40;;;5.80;;
5414;SDS011;2730;51.512;7.504;2022-08-19T15:40:49;9.60;;;6.77;;
5414;SDS011;2730;51.512;7.504;2022-08-19T15:43:18;8.70;;;5.90;;
5414;SDS011;2730;51.512;7.504;2022-08-19T15:45:47;9.17;;;4.93;;
5414;SDS011;2730;51.512;7.504;2022-08-19T15:48:14;6.07;;;5.57;;
5414;SDS011;2730;51.512;7.504;2022-08-19T15:50:41;5.90;;;5.30;;
5414;SDS011;2730;51.512;7.504;2022-08-19T15:53:08;5.87;;;5.17;;
5414;SDS011;2730;51.512;7.504;2022-08-19T15:55:37;8.83;;;6.10;;
5414;SDS011;2730;51.512;7.504;2022-08-19T15:58:09;7.03;;;5.63;;
5414;SDS011;2730;51.512;7.504;2022-08-19T16:00:57;6.90;;;6.20;;
5414;SDS011;2730;51.512;7.504;2022-08-19T16:03:41;6.40;;;5.80;;
5414;SDS011;2730;51.512;7.504;2022-08-19T16:06:25;6.40;;;5.90;;
5414;SDS011;2730;51.512;7.504;2022-08-19T16:08:54;9.03;;;6.70;;
5414;SDS011;2730;51.512;7.504;2022-08-19T16:11:23;8.70;;;6.63;;
5414;SDS011;2730;51.512;7.504;2022-08-19T16:13:54;6.23;;;5.63;;
5414;SDS011;2730;51.512;7.504;2022-08-19T16:16:23;9.80;;;5.80;;
5414;SDS011;2730;51.512;7.504;2022-08-19T16:18:52;7.17;;;6.47;;
5414;SDS011;2730;51.512;7.504;2022-08-19T16:21:20;8.20;;;6.90;;
5414;SDS011;2730;51.512;7.504;2022-08-19T16:23:50;7.80;;;7.10;;
5414;SDS011;2730;51.512;7.504;2022-08-19T16:26:17;7.20;;;6.50;;
5414;SDS011;2730;51.512;7.504;2022-08-19T16:28:45;8.70;;;7.90;;
5414;SDS011;2730;51.512;7.504;2022-08-19T16:31:13;8.83;;;8.00;;
5414;SDS011;2730;51.512;7.504;2022-08-19T16:33:42;12.73;;;7.43;;
5414;SDS011;2730;51.512;7.504;2022-08-19T16:36:09;10.70;;;7.33;;
5414;SDS011;2730;51.512;7.504;2022-08-19T16:38:36;8.40;;;7.70;;
5414;SDS011;2730;51.512;7.504;2022-08-19T16:41:03;10.23;;;7.13;;
5414;SDS011;2730;51.512;7.504;2022-08-19T16:43:31;10.43;;;7.73;;
5414;SDS011;2730;51.512;7.504;2022-08-19T16:45:58;10.80;;;8.00;;
5414;SDS011;2730;51.512;7.504;2022-08-19T16:48:27;8.60;;;7.70;;
5414;SDS011;2730;51.512;7.504;2022-08-19T16:50:58;11.97;;;8.63;;
5414;SDS011;2730;51.512;7.504;2022-08-19T16:53:26;11.23;;;9.40;;
5414;SDS011;2730;51.512;7.504;2022-08-19T16:55:56;10.70;;;9.63;;
5414;SDS011;2730;51.512;7.504;2022-08-19T16:58:24;13.27;;;9.77;;
5414;SDS011;2730;51.512;7.504;2022-08-19T17:00:53;11.83;;;9.17;;
5414;SDS011;2730;51.512;7.504;2022-08-19T17:03:21;13.03;;;11.30;;
5414;SDS011;2730;51.512;7.504;2022-08-19T17:05:49;14.20;;;9.47;;
5414;SDS011;2730;51.512;7.504;2022-08-19T17:08:20;15.13;;;9.57;;
5414;SDS011;2730;51.512;7.504;2022-08-19T17:10:47;11.00;;;9.93;;
5414;SDS011;2730;51.512;7.504;2022-08-19T17:13:14;11.40;;;9.50;;
5414;SDS011;2730;51.512;7.504;2022-08-19T17:15:42;10.20;;;9.20;;
5414;SDS011;2730;51.512;7.504;2022-08-19T17:18:09;16.93;;;9.07;;
5414;SDS011;2730;51.512;7.504;2022-08-19T17:20:38;11.63;;;9.90;;
5414;SDS011;2730;51.512;7.504;2022-08-19T17:23:07;13.63;;;9.47;;
5414;SDS011;2730;51.512;7.504;2022-08-19T17:25:36;18.50;;;9.40;;
5414;SDS011;2730;51.512;7.504;2022-08-19T17:28:05;10.93;;;9.17;;
5414;SDS011;2730;51.512;7.504;2022-08-19T17:30:32;12.27;;;9.20;;
5414;SDS011;2730;51.512;7.504;2022-08-19T17:32:59;11.93;;;9.30;;
5414;SDS011;2730;51.512;7.504;2022-08-19T17:35:26;16.83;;;8.70;;
5414;SDS011;2730;51.512;7.504;2022-08-19T17:37:53;12.50;;;8.50;;
5414;SDS011;2730;51.512;7.504;2022-08-19T17:40:20;15.53;;;9.00;;
5414;SDS011;2730;51.512;7.504;2022-08-19T17:42:50;16.10;;;8.20;;
5414;SDS011;2730;51.512;7.504;2022-08-19T17:45:18;10.87;;;8.20;;
5414;SDS011;2730;51.512;7.504;2022-08-19T17:47:46;12.43;;;8.37;;
5414;SDS011;2730;51.512;7.504;2022-08-19T17:50:13;12.97;;;8.70;;
5414;SDS011;2730;51.512;7.504;2022-08-19T17:52:40;10.77;;;8.70;;
5414;SDS011;2730;51.512;7.504;2022-08-19T17:55:08;11.53;;;9.00;;
5414;SDS011;2730;51.512;7.504;2022-08-19T17:57:36;13.10;;;8.67;;
5414;SDS011;2730;51.512;7.504;2022-08-19T18:00:07;12.43;;;8.47;;
5414;SDS011;2730;51.512;7.504;2022-08-19T18:02:42;11.30;;;8.20;;
5414;SDS011;2730;51.512;7.504;2022-08-19T18:05:11;11.63;;;9.30;;
5414;SDS011;2730;51.512;7.504;2022-08-19T18:07:38;19.13;;;9.23;;
5414;SDS011;2730;51.512;7.504;2022-08-19T18:10:06;15.57;;;9.50;;
5414;SDS011;2730;51.512;7.504;2022-08-19T18:12:35;17.60;;;11.07;;
5414;SDS011;2730;51.512;7.504;2022-08-19T18:15:02;13.53;;;10.57;;
5414;SDS011;2730;51.512;7.504;2022-08-19T18:17:31;16.80;;;10.50;;
5414;SDS011;2730;51.512;7.504;2022-08-19T18:19:59;15.80;;;11.13;;
5414;SDS011;2730;51.512;7.504;2022-08-19T18:22:27;12.93;;;10.37;;
5414;SDS011;2730;51.512;7.504;2022-08-19T18:25:00;13.90;;;10.93;;
5414;SDS011;2730;51.512;7.504;2022-08-19T18:27:29;12.90;;;10.30;;
5414;SDS011;2730;51.512;7.504;2022-08-19T18:29:56;14.57;;;10.03;;
5414;SDS011;2730;51.512;7.504;2022-08-19T18:32:24;12.50;;;11.20;;
5414;SDS011;2730;51.512;7.504;2022-08-19T18:34:53;13.30;;;10.30;;
5414;SDS011;2730;51.512;7.504;2022-08-19T18:37:20;14.20;;;10.60;;
5414;SDS011;2730;51.512;7.504;2022-08-19T18:39:47;14.83;;;11.13;;
5414;SDS011;2730;51.512;7.504;2022-08-19T18:42:31;15.10;;;11.20;;
5414;SDS011;2730;51.512;7.504;2022-08-19T18:45:15;14.83;;;10.67;;
5414;SDS011;2730;51.512;7.504;2022-08-19T18:48:00;16.63;;;10.50;;
5414;SDS011;2730;51.512;7.504;2022-08-19T18:50:45;16.47;;;12.17;;
5414;SDS011;2730;51.512;7.504;2022-08-19T18:53:12;14.03;;;10.87;;
5414;SDS011;2730;51.512;7.504;2022-08-19T18:55:40;17.77;;;11.50;;
5414;SDS011;2730;51.512;7.504;2022-08-19T18:58:07;15.60;;;10.77;;
5414;SDS011;2730;51.512;7.504;2022-08-19T19:00:34;15.03;;;11.10;;
5414;SDS011;2730;51.512;7.504;2022-08-19T19:03:01;14.70;;;10.97;;
5414;SDS011;2730;51.512;7.504;2022-08-19T19:05:28;17.33;;;11.67;;
5414;SDS011;2730;51.512;7.504;2022-08-19T19:07:57;17.13;;;11.90;;
5414;SDS011;2730;51.512;7.504;2022-08-19T19:10:24;13.83;;;10.80;;
5414;SDS011;2730;51.512;7.504;2022-08-19T19:12:51;17.23;;;10.10;;
5414;SDS011;2730;51.512;7.504;2022-08-19T19:15:18;14.70;;;9.93;;
5414;SDS011;2730;51.512;7.504;2022-08-19T19:17:45;13.23;;;10.10;;
5414;SDS011;2730;51.512;7.504;2022-08-19T19:20:12;15.63;;;12.03;;
5414;SDS011;2730;51.512;7.504;2022-08-19T19:22:39;14.83;;;10.80;;
5414;SDS011;2730;51.512;7.504;2022-08-19T19:25:07;17.37;;;9.70;;
5414;SDS011;2730;51.512;7.504;2022-08-19T19:27:35;14.93;;;9.57;;
5414;SDS011;2730;51.512;7.504;2022-08-19T19:30:04;16.90;;;10.97;;
5414;SDS011;2730;51.512;7.504;2022-08-19T19:32:32;15.30;;;9.93;;
5414;SDS011;2730;51.512;7.504;2022-08-19T19:35:03;11.60;;;10.00;;
5414;SDS011;2730;51.512;7.504;2022-08-19T19:37:30;12.13;;;10.53;;
5414;SDS011;2730;51.512;7.504;2022-08-19T19:39:57;21.77;;;11.77;;
5414;SDS011;2730;51.512;7.504;2022-08-19T19:42:26;16.97;;;11.17;;
5414;SDS011;2730;51.512;7.504;2022-08-19T19:44:53;16.43;;;11.13;;
5414;SDS011;2730;51.512;7.504;2022-08-19T19:47:21;16.30;;;12.23;;
5414;SDS011;2730;51.512;7.504;2022-08-19T19:49:49;21.60;;;12.80;;
5414;SDS011;2730;51.512;7.504;2022-08-19T19:52:16;18.60;;;11.47;;
5414;SDS011;2730;51.512;7.504;2022-08-19T19:54:44;17.93;;;11.63;;
5414;SDS011;2730;51.512;7.504;2022-08-19T19:57:12;16.03;;;12.10;;
5414;SDS011;2730;51.512;7.504;2022-08-19T19:59:41;21.53;;;12.03;;
5414;SDS011;2730;51.512;7.504;2022-08-19T20:02:08;18.70;;;11.27;;
5414;SDS011;2730;51.512;7.504;2022-08-19T20:04:36;18.47;;;12.60;;
5414;SDS011;2730;51.512;7.504;2022-08-19T20:07:05;19.63;;;13.60;;